Time;durP1;ratioP1;P1;durP2;ratioP2;P2;SDS_P1;SDS_P2;PMS_P1;PMS_P2;Temp;Humidity;BMP_temperature;BMP_pressure;BME280_temperature;BME280_humidity;BME280_pressure;Samples;Min_cycle;Max_cycle;Signal;HPM_P1;HPM_P2
2023/11/30 00:02:29;;;;;;;5.78;3.78;;;2.90;99.40;;;;;;6270342;22;20094;-68
2023/11/30 00:05:15;;;;;;;4.90;3.22;;;2.90;99.30;;;;;;6269691;22;20018;-68
2023/11/30 00:08:01;;;;;;;5.10;3.53;;;2.90;99.30;;;;;;6270289;22;20326;-70
2023/11/30 00:10:47;;;;;;;5.35;3.75;;;2.80;99.20;;;;;;6270347;22;20014;-70
2023/11/30 00:13:33;;;;;;;5.50;3.75;;;2.80;99.20;;;;;;6270214;22;20016;-69
2023/11/30 00:16:19;;;;;;;4.32;3.05;;;2.80;99.10;;;;;;6268905;22;20010;-70
2023/11/30 00:19:05;;;;;;;7.97;3.10;;;2.80;99.20;;;;;;6269540;22;20449;-70
2023/11/30 00:21:51;;;;;;;6.70;4.68;;;2.80;99.10;;;;;;6270085;22;20703;-70
2023/11/30 00:24:37;;;;;;;5.20;3.70;;;2.70;98.90;;;;;;6269804;22;20011;-70
2023/11/30 00:27:23;;;;;;;7.32;3.83;;;2.70;98.90;;;;;;6270058;22;20011;-70
2023/11/30 00:30:09;;;;;;;5.65;4.07;;;2.60;98.80;;;;;;6271069;22;20015;-70
2023/11/30 00:32:55;;;;;;;6.07;3.85;;;2.60;98.80;;;;;;6268445;22;20020;-70
2023/11/30 00:35:41;;;;;;;5.68;3.95;;;2.50;98.90;;;;;;6269904;22;20031;-69
2023/11/30 00:38:27;;;;;;;7.03;4.63;;;2.50;98.90;;;;;;6269711;22;20007;-70
2023/11/30 00:41:14;;;;;;;5.50;4.00;;;2.40;98.90;;;;;;6268664;22;20039;-75
2023/11/30 00:44:00;;;;;;;5.82;4.05;;;2.50;99.00;;;;;;6248095;22;20090;-72
2023/11/30 00:46:46;;;;;;;6.82;4.43;;;2.50;98.90;;;;;;6268463;22;20123;-72
2023/11/30 00:49:32;;;;;;;6.43;4.25;;;2.50;99.00;;;;;;6270839;22;20029;-72
2023/11/30 00:52:18;;;;;;;6.70;4.50;;;2.50;99.00;;;;;;6270013;22;20023;-73
2023/11/30 00:55:04;;;;;;;5.95;4.38;;;2.40;99.00;;;;;;6271227;22;20014;-72
2023/11/30 00:57:50;;;;;;;6.00;4.20;;;2.40;99.00;;;;;;6268869;22;20094;-72
2023/11/30 01:00:36;;;;;;;7.05;4.82;;;2.40;99.00;;;;;;6270523;22;20004;-73
2023/11/30 01:03:22;;;;;;;7.95;5.28;;;2.40;99.00;;;;;;6270416;22;20454;-72
2023/11/30 01:06:09;;;;;;;6.40;4.72;;;2.40;99.00;;;;;;6270171;22;20030;-72
2023/11/30 01:08:55;;;;;;;7.60;5.15;;;2.40;99.10;;;;;;6269691;22;20073;-71
2023/11/30 01:11:42;;;;;;;6.72;5.00;;;2.40;99.10;;;;;;6269904;22;20016;-72
2023/11/30 01:14:28;;;;;;;8.13;5.13;;;2.40;99.10;;;;;;6269418;22;20011;-71
2023/11/30 01:17:14;;;;;;;9.13;6.07;;;2.40;99.10;;;;;;6268886;22;20011;-70
2023/11/30 01:20:00;;;;;;;8.73;6.43;;;2.30;99.10;;;;;;6269069;22;20014;-70
2023/11/30 01:22:46;;;;;;;8.25;5.57;;;2.30;99.10;;;;;;6269830;22;20011;-70
2023/11/30 01:25:32;;;;;;;9.98;5.80;;;2.20;99.20;;;;;;6269560;22;20008;-70
2023/11/30 01:28:18;;;;;;;9.77;6.22;;;2.20;99.20;;;;;;6272303;22;20641;-70
2023/11/30 01:31:04;;;;;;;9.13;6.57;;;2.20;99.30;;;;;;6269382;22;20622;-70
2023/11/30 01:33:50;;;;;;;9.50;6.47;;;2.20;99.30;;;;;;6269853;22;20012;-71
2023/11/30 01:36:36;;;;;;;9.35;5.95;;;2.20;99.40;;;;;;6271568;22;20061;-74
2023/11/30 01:39:22;;;;;;;8.77;5.70;;;2.20;99.40;;;;;;6271344;22;20066;-73
2023/11/30 01:42:08;;;;;;;8.57;5.47;;;2.20;99.40;;;;;;6272259;22;20007;-74
2023/11/30 01:44:54;;;;;;;11.48;5.90;;;2.20;99.50;;;;;;6250325;22;20083;-73
2023/11/30 01:47:39;;;;;;;9.30;6.32;;;2.20;99.50;;;;;;6247914;22;20008;-73
2023/11/30 01:50:26;;;;;;;8.48;6.07;;;2.30;99.50;;;;;;6248539;22;20085;-74
2023/11/30 01:53:13;;;;;;;8.80;5.72;;;2.30;99.60;;;;;;6272322;22;20064;-74
2023/11/30 01:55:59;;;;;;;7.30;5.60;;;2.30;99.60;;;;;;6273910;22;20373;-70
2023/11/30 01:58:45;;;;;;;8.40;5.70;;;2.30;99.60;;;;;;6269742;22;20065;-70
2023/11/30 02:01:31;;;;;;;9.63;5.60;;;2.30;99.70;;;;;;6268667;22;20011;-70
2023/11/30 02:04:18;;;;;;;8.75;5.82;;;2.40;99.70;;;;;;6270624;22;20010;-71
2023/11/30 02:07:04;;;;;;;8.88;6.13;;;2.40;99.70;;;;;;6271972;22;20071;-71
2023/11/30 02:09:50;;;;;;;9.48;6.22;;;2.40;99.70;;;;;;6269492;22;20008;-70
2023/11/30 02:12:36;;;;;;;7.90;5.40;;;2.40;99.70;;;;;;6270292;22;20020;-70
2023/11/30 02:15:23;;;;;;;9.13;6.13;;;2.40;99.70;;;;;;6269673;22;20012;-70
2023/11/30 02:18:09;;;;;;;9.75;6.35;;;2.50;99.70;;;;;;6269338;22;20076;-70
2023/11/30 02:20:55;;;;;;;8.18;5.70;;;2.40;99.70;;;;;;6271491;22;20015;-70
2023/11/30 02:23:41;;;;;;;10.63;5.90;;;2.40;99.70;;;;;;6272740;22;20035;-73
2023/11/30 02:26:27;;;;;;;10.75;6.43;;;2.50;99.70;;;;;;6271709;22;20441;-72
2023/11/30 02:29:15;;;;;;;8.88;6.07;;;2.50;99.70;;;;;;6271503;22;20451;-73
2023/11/30 02:32:01;;;;;;;9.95;6.22;;;2.50;99.60;;;;;;6268427;22;20019;-73
2023/11/30 02:34:47;;;;;;;8.52;6.20;;;2.40;99.60;;;;;;6269974;22;20015;-72
2023/11/30 02:37:33;;;;;;;9.98;6.20;;;2.40;99.60;;;;;;6269254;22;20027;-72
2023/11/30 02:40:19;;;;;;;8.88;6.13;;;2.40;99.60;;;;;;6269132;22;20015;-74
2023/11/30 02:43:05;;;;;;;9.73;6.30;;;2.30;99.60;;;;;;6269600;22;20043;-72
2023/11/30 02:45:50;;;;;;;10.43;6.53;;;2.30;99.50;;;;;;6270518;22;20018;-72
2023/11/30 02:48:37;;;;;;;11.45;7.05;;;2.30;99.50;;;;;;6269899;22;20004;-72
2023/11/30 02:51:24;;;;;;;9.25;5.70;;;2.30;99.50;;;;;;6270452;22;20043;-71
2023/11/30 02:54:09;;;;;;;10.57;7.05;;;2.30;99.40;;;;;;6270128;22;20034;-71
2023/11/30 02:56:56;;;;;;;10.65;6.55;;;2.20;99.40;;;;;;6270471;22;20089;-71
2023/11/30 02:59:42;;;;;;;12.27;6.93;;;2.20;99.50;;;;;;6270485;22;20087;-71
2023/11/30 03:02:28;;;;;;;9.00;5.65;;;2.20;99.50;;;;;;6269385;22;20079;-70
2023/11/30 03:05:14;;;;;;;10.15;6.43;;;2.10;99.50;;;;;;6269859;22;20062;-69
2023/11/30 03:08:00;;;;;;;10.00;6.93;;;2.10;99.50;;;;;;6270542;22;20007;-69
2023/11/30 03:10:46;;;;;;;9.95;7.18;;;2.10;99.50;;;;;;6269970;22;20414;-69
2023/11/30 03:13:32;;;;;;;11.00;7.15;;;2.10;99.50;;;;;;6269456;22;20095;-70
2023/11/30 03:16:25;;;;;;;8.75;5.70;;;2.10;99.60;;;;;;6267795;22;20449;-69
2023/11/30 03:19:11;;;;;;;11.10;7.20;;;2.10;99.70;;;;;;6271349;22;20011;-72
2023/11/30 03:21:57;;;;;;;9.10;6.13;;;2.10;99.50;;;;;;6269613;22;20092;-72
2023/11/30 03:24:43;;;;;;;11.68;7.03;;;2.10;99.40;;;;;;6269458;22;20353;-72
2023/11/30 03:27:29;;;;;;;9.85;6.93;;;2.10;99.40;;;;;;6269687;22;20341;-72
2023/11/30 03:30:15;;;;;;;10.57;6.63;;;2.00;99.40;;;;;;6270498;22;20420;-72
2023/11/30 03:33:01;;;;;;;9.35;6.10;;;2.00;99.40;;;;;;6269291;22;20016;-72
2023/11/30 03:35:50;;;;;;;11.55;7.50;;;1.90;99.40;;;;;;6269607;22;20065;-72
2023/11/30 03:38:36;;;;;;;10.00;6.30;;;1.90;99.40;;;;;;6269499;22;20007;-72
2023/11/30 03:41:23;;;;;;;9.98;6.72;;;1.90;99.50;;;;;;6269275;22;20014;-72
2023/11/30 03:44:09;;;;;;;11.55;6.78;;;1.90;99.40;;;;;;6268729;22;20004;-72
2023/11/30 03:46:55;;;;;;;11.27;7.90;;;1.80;99.50;;;;;;6270673;22;20016;-71
2023/11/30 03:49:41;;;;;;;11.70;6.22;;;1.80;99.50;;;;;;6270738;22;20102;-69
2023/11/30 03:52:26;;;;;;;11.88;7.22;;;1.80;99.60;;;;;;6270109;22;20456;-69
2023/11/30 03:55:12;;;;;;;10.05;6.40;;;1.80;99.50;;;;;;6268847;22;20357;-69
2023/11/30 03:57:58;;;;;;;11.55;7.05;;;1.80;99.50;;;;;;6270668;22;20014;-69
2023/11/30 04:00:45;;;;;;;9.05;6.22;;;1.80;99.60;;;;;;6245618;22;20015;-69
2023/11/30 04:03:30;;;;;;;10.35;6.82;;;1.80;99.60;;;;;;6248847;22;20069;-69
2023/11/30 04:06:20;;;;;;;10.50;6.70;;;1.80;99.60;;;;;;6270273;22;20012;-69
2023/11/30 04:09:07;;;;;;;9.13;6.22;;;1.80;99.60;;;;;;6268987;22;20066;-69
2023/11/30 04:11:53;;;;;;;9.88;7.05;;;1.70;99.60;;;;;;6268835;22;20016;-68
2023/11/30 04:14:39;;;;;;;11.55;7.35;;;1.70;99.60;;;;;;6270467;22;20008;-68
2023/11/30 04:17:25;;;;;;;11.15;7.28;;;1.70;99.60;;;;;;6248166;22;20035;-69
2023/11/30 04:20:11;;;;;;;9.77;7.00;;;1.70;99.60;;;;;;6247567;22;20012;-69
2023/11/30 04:22:57;;;;;;;11.07;6.75;;;1.70;99.60;;;;;;6270002;22;20022;-69
2023/11/30 04:25:43;;;;;;;10.13;6.30;;;1.70;99.60;;;;;;6268506;22;20074;-69
2023/11/30 04:28:29;;;;;;;11.48;6.97;;;1.60;99.60;;;;;;6268766;22;20020;-71
2023/11/30 04:31:15;;;;;;;12.35;7.82;;;1.60;99.60;;;;;;6267687;22;20098;-72
2023/11/30 04:34:01;;;;;;;9.90;6.15;;;1.60;99.60;;;;;;6270103;22;20004;-72
2023/11/30 04:36:46;;;;;;;9.90;6.70;;;1.60;99.60;;;;;;6270690;22;20039;-72
2023/11/30 04:39:32;;;;;;;11.60;6.38;;;1.60;99.60;;;;;;6270417;22;20020;-73
2023/11/30 04:42:18;;;;;;;10.82;6.85;;;1.60;99.60;;;;;;6269035;22;20381;-72
2023/11/30 04:45:05;;;;;;;12.95;6.72;;;1.50;99.60;;;;;;6270910;22;20026;-72
2023/11/30 04:47:51;;;;;;;11.10;6.97;;;1.50;99.60;;;;;;6268932;22;20193;-72
2023/11/30 04:50:37;;;;;;;11.45;6.90;;;1.50;99.70;;;;;;6270347;22;20102;-71
2023/11/30 04:53:23;;;;;;;13.00;7.18;;;1.40;99.60;;;;;;6269785;22;20016;-71
2023/11/30 04:56:09;;;;;;;11.90;7.75;;;1.40;99.70;;;;;;6270111;22;20018;-72
2023/11/30 04:58:55;;;;;;;13.35;7.45;;;1.40;99.70;;;;;;6271013;22;20023;-72
2023/11/30 05:01:41;;;;;;;12.85;8.00;;;1.40;99.70;;;;;;6271694;22;20425;-72
2023/11/30 05:04:27;;;;;;;13.00;7.53;;;1.30;99.70;;;;;;6271669;22;20011;-72
2023/11/30 05:07:13;;;;;;;12.15;7.35;;;1.30;99.70;;;;;;6249875;22;20349;-72
2023/11/30 05:09:59;;;;;;;12.52;7.40;;;1.30;99.70;;;;;;6272852;22;20007;-72
2023/11/30 05:12:45;;;;;;;12.38;7.55;;;1.30;99.70;;;;;;6271918;22;20051;-72
2023/11/30 05:15:31;;;;;;;12.25;7.53;;;1.30;99.80;;;;;;6270012;22;20016;-73
2023/11/30 05:18:18;;;;;;;14.10;6.97;;;1.40;99.80;;;;;;6271418;22;20012;-73
2023/11/30 05:21:04;;;;;;;14.25;7.53;;;1.30;99.70;;;;;;6270721;22;20437;-73
2023/11/30 05:23:51;;;;;;;14.30;8.55;;;1.30;99.70;;;;;;6270600;22;20004;-73
2023/11/30 05:26:37;;;;;;;15.25;8.30;;;1.30;99.70;;;;;;6269586;22;20011;-74
2023/11/30 05:29:22;;;;;;;13.73;7.95;;;1.30;99.70;;;;;;6271046;22;20008;-75
2023/11/30 05:32:08;;;;;;;13.82;8.05;;;1.30;99.70;;;;;;6270579;22;20027;-73
2023/11/30 05:34:54;;;;;;;11.20;7.05;;;1.30;99.70;;;;;;6271008;22;20012;-70
2023/11/30 05:37:40;;;;;;;12.15;7.57;;;1.30;99.80;;;;;;6271314;22;20012;-71
2023/11/30 05:40:26;;;;;;;14.38;8.10;;;1.30;99.80;;;;;;6271625;22;20003;-72
2023/11/30 05:43:12;;;;;;;14.25;8.68;;;1.30;99.80;;;;;;6271848;22;20477;-68
2023/11/30 05:45:58;;;;;;;13.60;8.27;;;1.30;99.80;;;;;;6270685;22;20007;-68
2023/11/30 05:48:44;;;;;;;13.70;7.93;;;1.30;99.80;;;;;;6269966;22;20016;-68
2023/11/30 05:51:30;;;;;;;15.25;8.57;;;1.30;99.90;;;;;;6271330;22;20153;-69
2023/11/30 05:54:16;;;;;;;12.65;7.95;;;1.20;99.90;;;;;;6270666;22;20050;-68
2023/11/30 05:57:02;;;;;;;13.25;7.30;;;1.30;99.90;;;;;;6270871;22;20457;-69
2023/11/30 05:59:49;;;;;;;13.38;7.38;;;1.30;99.90;;;;;;6270281;22;20007;-69
2023/11/30 06:02:34;;;;;;;15.30;7.32;;;1.30;99.90;;;;;;6271960;22;20066;-69
2023/11/30 06:05:20;;;;;;;11.95;7.72;;;1.30;99.90;;;;;;6271448;22;20042;-69
2023/11/30 06:08:06;;;;;;;13.20;7.57;;;1.40;99.90;;;;;;6271030;22;20035;-69
2023/11/30 06:10:52;;;;;;;13.45;7.97;;;1.40;99.90;;;;;;6271211;22;20268;-69
2023/11/30 06:13:38;;;;;;;13.77;8.98;;;1.40;99.90;;;;;;6269033;22;20016;-69
2023/11/30 06:16:24;;;;;;;14.75;7.75;;;1.40;99.90;;;;;;6271323;22;20008;-69
2023/11/30 06:19:11;;;;;;;13.50;7.70;;;1.50;99.90;;;;;;6270754;22;20014;-70
2023/11/30 06:21:57;;;;;;;15.63;8.18;;;1.50;99.90;;;;;;6270241;22;20007;-70
2023/11/30 06:24:43;;;;;;;13.23;7.63;;;1.50;99.90;;;;;;6269067;22;20004;-71
2023/11/30 06:27:29;;;;;;;14.30;8.35;;;1.50;99.90;;;;;;6270138;22;20035;-70
2023/11/30 06:30:15;;;;;;;14.90;8.15;;;1.50;99.90;;;;;;6270607;22;20012;-71
2023/11/30 06:33:01;;;;;;;14.43;8.05;;;1.50;99.90;;;;;;6269659;22;20015;-70
2023/11/30 06:35:47;;;;;;;12.57;8.48;;;1.50;99.90;;;;;;6270744;22;20003;-70
2023/11/30 06:38:33;;;;;;;16.40;9.75;;;1.60;99.90;;;;;;6271305;22;20039;-71
2023/11/30 06:41:19;;;;;;;12.60;8.45;;;1.60;99.90;;;;;;6269931;22;20441;-70
2023/11/30 06:44:05;;;;;;;13.68;8.52;;;1.60;99.90;;;;;;6270752;22;20430;-70
2023/11/30 06:46:51;;;;;;;13.02;7.95;;;1.50;99.90;;;;;;6270083;22;20599;-70
2023/11/30 06:49:37;;;;;;;12.27;7.70;;;1.50;99.90;;;;;;6249102;22;20023;-73
2023/11/30 06:52:23;;;;;;;17.92;9.60;;;1.50;99.90;;;;;;6270547;22;20058;-66
2023/11/30 06:55:09;;;;;;;15.13;7.88;;;1.40;99.90;;;;;;6249320;22;20460;-67
2023/11/30 06:57:56;;;;;;;14.52;7.85;;;1.50;99.90;;;;;;6268941;22;20063;-70
2023/11/30 07:00:42;;;;;;;15.20;8.13;;;1.50;99.90;;;;;;6269016;22;20073;-71
2023/11/30 07:03:30;;;;;;;14.30;8.55;;;1.50;99.90;;;;;;6267481;22;20007;-75
2023/11/30 07:06:16;;;;;;;17.13;8.25;;;1.50;99.90;;;;;;6268568;22;20039;-75
2023/11/30 07:09:03;;;;;;;13.82;8.05;;;1.50;99.90;;;;;;6270564;22;20007;-75
2023/11/30 07:11:49;;;;;;;14.00;8.40;;;1.50;99.90;;;;;;6268180;22;20020;-74
2023/11/30 07:14:35;;;;;;;14.07;8.27;;;1.50;99.90;;;;;;6270170;22;20008;-75
2023/11/30 07:17:23;;;;;;;13.63;8.60;;;1.50;99.90;;;;;;6268366;22;20065;-75
2023/11/30 07:20:09;;;;;;;20.70;9.02;;;1.50;99.90;;;;;;6270353;22;20015;-75
2023/11/30 07:22:57;;;;;;;13.80;8.35;;;1.50;99.90;;;;;;6268544;22;20019;-75
2023/11/30 07:25:43;;;;;;;15.10;8.85;;;1.50;99.90;;;;;;6270475;22;20004;-74
2023/11/30 07:28:28;;;;;;;14.38;8.55;;;1.50;99.90;;;;;;6248278;22;20481;-74
2023/11/30 07:31:21;;;;;;;15.25;8.65;;;1.50;99.90;;;;;;6269823;22;20449;-74
2023/11/30 07:34:07;;;;;;;16.38;9.20;;;1.50;99.80;;;;;;6270102;22;20563;-74
2023/11/30 07:36:53;;;;;;;13.50;8.57;;;1.40;99.80;;;;;;6270691;22;20339;-67
2023/11/30 07:39:39;;;;;;;15.68;8.55;;;1.40;99.80;;;;;;6269869;22;20451;-68
2023/11/30 07:42:25;;;;;;;16.52;8.43;;;1.40;99.80;;;;;;6270179;22;20469;-68
2023/11/30 07:45:11;;;;;;;13.15;8.38;;;1.40;99.90;;;;;;6270637;22;20480;-68
2023/11/30 07:47:58;;;;;;;15.82;10.10;;;1.40;99.90;;;;;;6268873;22;20598;-67
2023/11/30 07:50:44;;;;;;;15.35;9.25;;;1.40;99.80;;;;;;6269801;22;20019;-68
2023/11/30 07:53:30;;;;;;;17.67;10.75;;;1.40;99.90;;;;;;6269636;22;20024;-69
2023/11/30 07:56:20;;;;;;;14.98;8.98;;;1.40;99.90;;;;;;6270152;22;20050;-69
2023/11/30 07:59:06;;;;;;;16.83;8.95;;;1.50;99.90;;;;;;6269813;22;20353;-69
2023/11/30 08:01:52;;;;;;;16.15;9.50;;;1.60;99.90;;;;;;6271380;22;20517;-69
2023/11/30 08:04:38;;;;;;;16.65;9.07;;;1.60;99.90;;;;;;6267834;22;20015;-73
2023/11/30 08:07:23;;;;;;;19.02;9.40;;;1.70;99.90;;;;;;6271109;22;20442;-72
2023/11/30 08:10:10;;;;;;;16.60;8.93;;;1.70;99.90;;;;;;6268261;22;20039;-74
2023/11/30 08:12:56;;;;;;;12.73;9.00;;;1.80;99.90;;;;;;6266464;22;20517;-76
2023/11/30 08:15:42;;;;;;;16.83;10.25;;;1.90;99.90;;;;;;6267871;22;20506;-75
2023/11/30 08:18:28;;;;;;;17.23;9.82;;;2.00;99.90;;;;;;6269885;22;20007;-72
2023/11/30 08:21:14;;;;;;;17.42;10.13;;;2.20;99.90;;;;;;6268751;22;20531;-72
2023/11/30 08:24:00;;;;;;;16.23;10.18;;;2.20;99.90;;;;;;6269391;22;20349;-71
2023/11/30 08:26:46;;;;;;;15.82;9.48;;;2.30;99.90;;;;;;6245966;22;20421;-72
2023/11/30 08:29:34;;;;;;;17.88;9.80;;;2.40;99.90;;;;;;6247438;22;20057;-72
2023/11/30 08:32:20;;;;;;;19.17;10.38;;;2.40;99.90;;;;;;6268416;22;20662;-72
2023/11/30 08:35:07;;;;;;;15.40;9.02;;;2.40;99.90;;;;;;6271543;22;20018;-72
2023/11/30 08:37:53;;;;;;;15.98;9.43;;;2.50;99.90;;;;;;6267594;22;20011;-72
2023/11/30 08:40:39;;;;;;;15.70;9.95;;;2.60;99.90;;;;;;6248432;22;20012;-72
2023/11/30 08:43:25;;;;;;;15.40;9.77;;;2.60;99.90;;;;;;6273025;22;20012;-72
2023/11/30 08:46:11;;;;;;;14.13;8.95;;;2.70;99.90;;;;;;6271367;22;20016;-75
2023/11/30 08:48:57;;;;;;;20.75;10.40;;;2.70;99.90;;;;;;6269967;22;20353;-76
2023/11/30 08:51:43;;;;;;;14.48;10.02;;;2.70;99.90;;;;;;6271187;22;20476;-76
2023/11/30 08:54:29;;;;;;;14.73;9.30;;;2.60;99.90;;;;;;6271299;22;20015;-74
2023/11/30 08:57:15;;;;;;;16.05;9.75;;;2.70;99.90;;;;;;6269963;22;20074;-71
2023/11/30 09:00:05;;;;;;;19.10;10.68;;;2.70;99.90;;;;;;6270587;22;20012;-69
2023/11/30 09:02:51;;;;;;;16.85;9.88;;;2.80;99.90;;;;;;6271684;22;20007;-75
2023/11/30 09:05:37;;;;;;;15.85;9.43;;;2.80;99.90;;;;;;6271130;22;20015;-72
2023/11/30 09:08:23;;;;;;;17.00;10.07;;;2.90;99.90;;;;;;6270457;22;20015;-72
2023/11/30 09:11:09;;;;;;;16.20;10.00;;;3.00;99.90;;;;;;6270930;22;20038;-73
2023/11/30 09:13:55;;;;;;;16.50;10.57;;;3.10;99.90;;;;;;6269385;22;20158;-73
2023/11/30 09:16:42;;;;;;;14.82;10.43;;;3.10;99.90;;;;;;6269999;22;20014;-73
2023/11/30 09:19:28;;;;;;;19.90;10.27;;;3.20;99.90;;;;;;6270823;22;20007;-74
2023/11/30 09:22:15;;;;;;;14.52;8.88;;;3.30;99.90;;;;;;6271987;22;20091;-74
2023/11/30 09:25:01;;;;;;;14.75;8.95;;;3.40;99.90;;;;;;6249749;22;20004;-74
2023/11/30 09:27:47;;;;;;;17.90;10.10;;;3.40;99.90;;;;;;6271377;22;20008;-74
2023/11/30 09:30:32;;;;;;;15.10;9.15;;;3.50;99.90;;;;;;6271761;22;20008;-73
2023/11/30 09:33:18;;;;;;;15.35;8.98;;;3.50;99.90;;;;;;6250091;22;20165;-72
2023/11/30 09:36:05;;;;;;;16.48;10.25;;;3.60;99.90;;;;;;6270685;22;20021;-73
2023/11/30 09:38:50;;;;;;;17.50;9.60;;;3.60;99.90;;;;;;6266132;22;20061;-72
2023/11/30 09:41:38;;;;;;;15.98;9.10;;;3.70;99.80;;;;;;6246361;22;20431;-74
2023/11/30 09:44:24;;;;;;;18.00;10.65;;;3.70;99.70;;;;;;6269519;22;20054;-73
2023/11/30 09:47:10;;;;;;;16.15;10.32;;;3.70;99.70;;;;;;6271761;22;20069;-72
2023/11/30 09:49:57;;;;;;;15.98;10.77;;;3.80;99.70;;;;;;6270020;22;20034;-72
2023/11/30 09:52:43;;;;;;;17.13;10.98;;;3.80;99.60;;;;;;6248839;22;20102;-72
2023/11/30 09:55:30;;;;;;;19.75;10.50;;;3.80;99.60;;;;;;6271871;22;20413;-72
2023/11/30 09:58:16;;;;;;;15.75;9.82;;;3.90;99.60;;;;;;6270277;22;20015;-72
2023/11/30 10:01:03;;;;;;;16.15;10.00;;;3.90;99.50;;;;;;6269515;22;20112;-72
2023/11/30 10:03:49;;;;;;;21.70;10.02;;;3.90;99.50;;;;;;6269889;22;20008;-72
2023/11/30 10:06:35;;;;;;;14.45;9.68;;;4.00;99.50;;;;;;6268800;22;20087;-72
2023/11/30 10:09:22;;;;;;;14.32;9.13;;;4.00;99.40;;;;;;6271531;22;20442;-72
2023/11/30 10:12:08;;;;;;;18.35;9.85;;;4.10;99.30;;;;;;6245262;22;20054;-71
2023/11/30 10:15:01;;;;;;;18.73;10.18;;;4.10;99.30;;;;;;6263606;22;20418;-73
2023/11/30 10:17:48;;;;;;;19.05;10.75;;;4.10;99.20;;;;;;6269427;22;20015;-72
2023/11/30 10:20:37;;;;;;;17.63;10.38;;;4.10;99.10;;;;;;6270630;22;20007;-68
2023/11/30 10:23:23;;;;;;;16.00;10.35;;;4.10;99.10;;;;;;6269161;22;20016;-68
2023/11/30 10:26:12;;;;;;;16.15;10.43;;;4.10;99.10;;;;;;6269019;22;20007;-64
2023/11/30 10:29:06;;;;;;;23.90;12.23;;;4.10;99.00;;;;;;6269901;22;20022;-65
2023/11/30 10:31:54;;;;;;;20.08;11.98;;;4.00;98.90;;;;;;6268652;22;20425;-66
2023/11/30 10:34:54;;;;;;;16.98;10.88;;;4.00;98.90;;;;;;6268865;22;20429;-65
2023/11/30 10:37:45;;;;;;;22.35;11.38;;;4.00;98.80;;;;;;6268683;22;20018;-66
2023/11/30 10:40:31;;;;;;;15.20;9.95;;;4.00;98.80;;;;;;6268474;22;20090;-67
2023/11/30 10:43:18;;;;;;;18.92;11.23;;;4.00;98.70;;;;;;6269947;22;20011;-67
2023/11/30 10:46:07;;;;;;;16.55;9.93;;;4.10;98.60;;;;;;6269871;22;20014;-68
2023/11/30 10:48:54;;;;;;;16.85;9.40;;;4.10;98.50;;;;;;6269159;22;20015;-68
2023/11/30 10:51:41;;;;;;;13.93;8.88;;;4.20;98.40;;;;;;6269253;22;20102;-67
2023/11/30 10:54:39;;;;;;;14.68;8.75;;;4.20;98.20;;;;;;6266515;22;20015;-69
2023/11/30 10:57:25;;;;;;;11.65;8.18;;;4.20;98.00;;;;;;6269507;22;20018;-66
2023/11/30 11:00:15;;;;;;;18.17;9.15;;;4.20;97.90;;;;;;6270215;22;20072;-67
2023/11/30 11:03:07;;;;;;;20.92;9.55;;;4.30;97.50;;;;;;6268843;22;20023;-67
2023/11/30 11:05:55;;;;;;;16.92;8.15;;;4.30;97.40;;;;;;6270242;22;20221;-68
2023/11/30 11:09:02;;;;;;;15.38;8.52;;;4.40;97.20;;;;;;6266070;22;20086;-69
2023/11/30 11:11:49;;;;;;;13.23;8.13;;;4.40;97.20;;;;;;6267650;22;20441;-70
2023/11/30 11:14:35;;;;;;;14.45;8.20;;;4.40;96.90;;;;;;6268994;22;20408;-68
2023/11/30 11:17:26;;;;;;;14.88;6.85;;;4.40;96.80;;;;;;6268843;22;20011;-69
2023/11/30 11:20:22;;;;;;;12.73;6.03;;;4.40;96.50;;;;;;6267601;22;20007;-69
2023/11/30 11:23:08;;;;;;;8.93;5.03;;;4.40;96.20;;;;;;6271138;22;20380;-69
2023/11/30 11:25:57;;;;;;;8.75;5.63;;;4.40;96.00;;;;;;6270729;22;20106;-69
2023/11/30 11:28:45;;;;;;;11.05;6.50;;;4.40;95.80;;;;;;6267576;22;20038;-69
2023/11/30 11:31:31;;;;;;;8.57;5.72;;;4.40;95.60;;;;;;6266530;22;20022;-69
2023/11/30 11:34:17;;;;;;;9.88;6.20;;;4.40;95.40;;;;;;6268170;22;20338;-68
2023/11/30 11:37:03;;;;;;;13.30;7.15;;;4.30;95.20;;;;;;6267318;22;20026;-68
2023/11/30 11:39:52;;;;;;;10.18;5.63;;;4.20;95.00;;;;;;6267770;22;20090;-68
2023/11/30 11:42:38;;;;;;;9.20;5.65;;;4.20;94.90;;;;;;6267040;22;20768;-68
2023/11/30 11:45:24;;;;;;;7.03;4.13;;;4.20;94.70;;;;;;6268440;22;20016;-68
2023/11/30 11:48:11;;;;;;;6.53;3.92;;;4.20;94.40;;;;;;6267930;22;20015;-68
2023/11/30 11:51:00;;;;;;;5.00;4.03;;;4.20;94.20;;;;;;6246708;22;20480;-68
2023/11/30 11:53:47;;;;;;;5.57;3.88;;;4.30;94.10;;;;;;6268433;22;20050;-68
2023/11/30 11:56:32;;;;;;;8.27;4.28;;;4.30;93.90;;;;;;6271016;22;20051;-68
2023/11/30 11:59:20;;;;;;;6.57;4.30;;;4.30;93.70;;;;;;6267469;22;20007;-68
2023/11/30 12:02:06;;;;;;;9.27;5.85;;;4.30;93.60;;;;;;6271064;22;20007;-68
2023/11/30 12:04:52;;;;;;;10.43;6.10;;;4.30;93.40;;;;;;6269156;22;20046;-69
2023/11/30 12:07:49;;;;;;;9.40;5.55;;;4.20;93.10;;;;;;6270153;22;20016;-68
2023/11/30 12:10:43;;;;;;;15.07;6.03;;;4.30;92.90;;;;;;6245213;22;20335;-69
2023/11/30 12:13:29;;;;;;;18.80;6.78;;;4.20;92.90;;;;;;6270369;22;20019;-68
2023/11/30 12:16:15;;;;;;;15.32;7.35;;;4.10;92.90;;;;;;6267862;22;20012;-68
2023/11/30 12:19:02;;;;;;;15.02;8.80;;;4.00;93.00;;;;;;6266028;22;20246;-68
2023/11/30 12:21:48;;;;;;;14.40;7.70;;;3.90;93.00;;;;;;6269754;22;20011;-68
2023/11/30 12:24:34;;;;;;;16.30;9.40;;;3.90;93.10;;;;;;6266535;22;20380;-67
2023/11/30 12:27:20;;;;;;;13.40;7.47;;;3.80;93.10;;;;;;6266875;22;20345;-67
2023/11/30 12:30:08;;;;;;;16.90;9.48;;;3.80;93.20;;;;;;6268739;22;20015;-71
2023/11/30 12:32:54;;;;;;;14.32;8.32;;;3.80;93.30;;;;;;6268165;22;20081;-69
2023/11/30 12:35:40;;;;;;;16.48;8.93;;;3.70;93.30;;;;;;6268207;22;20282;-69
2023/11/30 12:38:26;;;;;;;12.77;8.57;;;3.70;93.40;;;;;;6268855;22;20449;-69
2023/11/30 12:41:12;;;;;;;14.55;7.72;;;3.70;93.50;;;;;;6265673;22;20392;-69
2023/11/30 12:43:59;;;;;;;14.27;8.45;;;3.70;93.50;;;;;;6268272;22;20011;-69
2023/11/30 12:46:45;;;;;;;12.68;7.97;;;3.70;93.60;;;;;;6268299;22;20020;-68
2023/11/30 12:49:32;;;;;;;11.40;7.25;;;3.70;93.70;;;;;;6268532;22;20503;-69
2023/11/30 12:52:20;;;;;;;11.07;7.40;;;3.70;93.80;;;;;;6270788;22;20392;-69
2023/11/30 12:55:06;;;;;;;11.73;8.25;;;3.70;93.80;;;;;;6267970;22;20012;-70
2023/11/30 12:57:52;;;;;;;14.45;8.43;;;3.60;93.80;;;;;;6268474;22;20014;-67
2023/11/30 13:00:39;;;;;;;11.18;7.80;;;3.60;93.80;;;;;;6269167;22;20012;-67
2023/11/30 13:03:26;;;;;;;15.00;8.85;;;3.60;93.80;;;;;;6268876;22;20441;-68
2023/11/30 13:06:11;;;;;;;11.85;8.10;;;3.60;93.80;;;;;;6267339;22;20331;-68
2023/11/30 13:08:57;;;;;;;12.60;7.47;;;3.60;93.90;;;;;;6268318;22;20003;-70
2023/11/30 13:11:44;;;;;;;12.70;7.43;;;3.60;93.80;;;;;;6267830;22;20417;-68
2023/11/30 13:14:31;;;;;;;10.77;7.20;;;3.60;93.80;;;;;;6270131;22;20027;-68
2023/11/30 13:17:17;;;;;;;11.68;6.70;;;3.60;93.90;;;;;;6269064;22;20383;-68
2023/11/30 13:20:07;;;;;;;12.85;7.43;;;3.60;94.00;;;;;;6270928;22;20428;-68
2023/11/30 13:22:53;;;;;;;10.90;6.63;;;3.60;94.10;;;;;;6269855;22;20003;-67
2023/11/30 13:25:39;;;;;;;8.18;5.70;;;3.70;94.20;;;;;;6270591;22;20476;-67
2023/11/30 13:28:25;;;;;;;9.95;5.80;;;3.70;94.20;;;;;;6270044;22;20007;-69
2023/11/30 13:31:11;;;;;;;6.53;4.95;;;3.70;94.30;;;;;;6270823;22;20362;-73
2023/11/30 13:33:57;;;;;;;7.38;4.70;;;3.80;94.30;;;;;;6247259;22;20453;-70
2023/11/30 13:36:44;;;;;;;10.68;4.93;;;3.80;94.30;;;;;;6270488;22;20037;-70
2023/11/30 13:39:30;;;;;;;7.75;4.43;;;3.70;94.30;;;;;;6270414;22;20008;-70
2023/11/30 13:42:16;;;;;;;7.28;4.35;;;3.70;94.30;;;;;;6270132;22;20105;-69
2023/11/30 13:45:05;;;;;;;7.88;4.90;;;3.70;94.20;;;;;;6269934;22;20385;-70
2023/11/30 13:47:51;;;;;;;6.78;4.32;;;3.70;94.20;;;;;;6269819;22;20007;-69
2023/11/30 13:50:37;;;;;;;8.80;5.57;;;3.70;94.20;;;;;;6269118;22;20030;-69
2023/11/30 13:53:25;;;;;;;6.80;4.40;;;3.70;94.30;;;;;;6270645;22;20085;-69
2023/11/30 13:56:11;;;;;;;11.80;5.38;;;3.60;94.30;;;;;;6270214;22;20334;-69
2023/11/30 13:58:57;;;;;;;9.32;5.45;;;3.60;94.30;;;;;;6270130;22;20012;-70
2023/11/30 14:01:43;;;;;;;10.10;5.32;;;3.60;94.40;;;;;;6270300;22;20008;-70
2023/11/30 14:04:29;;;;;;;14.55;5.60;;;3.60;94.40;;;;;;6270726;22;20011;-70
2023/11/30 14:07:14;;;;;;;12.52;5.47;;;3.60;94.40;;;;;;6266514;22;20008;-70
2023/11/30 14:10:01;;;;;;;15.65;4.93;;;3.60;94.50;;;;;;6268684;22;20015;-70
2023/11/30 14:12:48;;;;;;;16.00;5.40;;;3.60;94.50;;;;;;6270617;22;20016;-70
2023/11/30 14:15:34;;;;;;;11.30;5.57;;;3.60;94.50;;;;;;6266930;22;20008;-70
2023/11/30 14:18:20;;;;;;;10.02;5.28;;;3.60;94.60;;;;;;6269321;22;20015;-70
2023/11/30 14:21:06;;;;;;;8.45;5.00;;;3.60;94.60;;;;;;6270063;22;20007;-71
2023/11/30 14:23:52;;;;;;;8.60;5.10;;;3.50;94.50;;;;;;6249358;22;20080;-68
2023/11/30 14:26:39;;;;;;;8.80;5.57;;;3.50;94.50;;;;;;6269291;22;20015;-66
2023/11/30 14:29:25;;;;;;;9.05;5.47;;;3.40;94.50;;;;;;6271782;22;20073;-67